createdAt,value
2022-10-15T00:01:44.933Z,6.81
2022-10-15T00:04:13.075Z,6.76
2022-10-15T00:06:41.057Z,6.73
2022-10-15T00:09:09.069Z,6.70
2022-10-15T00:11:37.401Z,6.69
2022-10-15T00:14:05.504Z,6.69
2022-10-15T00:16:33.778Z,6.70
2022-10-15T00:19:02.088Z,6.71
2022-10-15T00:21:30.293Z,6.72
2022-10-15T00:23:58.327Z,6.73
2022-10-15T00:26:28.593Z,6.73
2022-10-15T00:29:02.712Z,6.72
2022-10-15T00:31:32.436Z,6.74
2022-10-15T00:34:02.942Z,6.75
2022-10-15T00:36:34.761Z,6.76
2022-10-15T00:39:06.047Z,6.76
2022-10-15T00:41:38.077Z,6.75
2022-10-15T00:44:21.811Z,6.73
2022-10-15T00:46:54.987Z,6.69
2022-10-15T00:49:31.516Z,6.64
2022-10-15T00:52:05.863Z,6.58
2022-10-15T00:54:39.993Z,6.52
2022-10-15T00:57:09.626Z,6.45
2022-10-15T00:59:43.141Z,6.40
2022-10-15T01:02:12.803Z,6.35
2022-10-15T01:04:42.299Z,6.33
2022-10-15T01:07:11.132Z,6.30
2022-10-15T01:09:42.760Z,6.27
2022-10-15T01:12:26.226Z,6.21
2022-10-15T01:15:11.257Z,6.15
2022-10-15T01:17:48.560Z,6.10
2022-10-15T01:20:41.864Z,6.08
2022-10-15T01:23:34.373Z,6.04
2022-10-15T01:26:54.241Z,5.98
2022-10-15T01:29:40.509Z,5.96
2022-10-15T01:32:14.606Z,5.96
2022-10-15T01:35:18.762Z,5.96
2022-10-15T01:37:57.389Z,5.99
2022-10-15T01:40:32.541Z,6.01
2022-10-15T01:43:07.869Z,6.03
2022-10-15T01:46:03.908Z,6.00
2022-10-15T01:48:44.436Z,5.98
2022-10-15T01:51:18.188Z,5.94
2022-10-15T01:53:47.985Z,5.89
2022-10-15T01:56:21.473Z,5.82
2022-10-15T01:58:53.153Z,5.73
2022-10-15T02:01:22.362Z,5.63
2022-10-15T02:03:53.014Z,5.50
2022-10-15T02:06:43.286Z,5.35
2022-10-15T02:09:25.428Z,5.27
2022-10-15T02:12:12.332Z,5.22
2022-10-15T02:14:52.386Z,5.18
2022-10-15T02:17:28.816Z,5.14
2022-10-15T02:20:20.996Z,5.12
2022-10-15T02:22:56.861Z,5.12
2022-10-15T02:25:28.321Z,5.10
2022-10-15T02:27:58.431Z,5.08
2022-10-15T02:30:30.332Z,5.06
2022-10-15T02:33:00.377Z,5.06
2022-10-15T02:35:29.520Z,5.12
2022-10-15T02:38:03.691Z,5.22
2022-10-15T02:40:36.365Z,5.33
2022-10-15T02:43:09.389Z,5.45
2022-10-15T02:45:38.351Z,5.55
2022-10-15T02:48:07.876Z,5.65
2022-10-15T02:50:36.949Z,5.74
2022-10-15T02:53:06.087Z,5.82
2022-10-15T02:55:35.492Z,5.90
2022-10-15T02:58:03.936Z,5.94
2022-10-15T03:00:32.457Z,5.93
2022-10-15T03:03:01.334Z,5.88
2022-10-15T03:05:29.887Z,5.88
2022-10-15T03:08:00.098Z,5.90
2022-10-15T03:10:29.353Z,5.88
2022-10-15T03:13:03.910Z,5.85
2022-10-15T03:15:32.833Z,5.88
2022-10-15T03:18:01.021Z,5.93
2022-10-15T03:20:29.880Z,5.98
2022-10-15T03:22:58.056Z,6.02
2022-10-15T03:25:26.345Z,6.05
2022-10-15T03:27:59.917Z,6.06
2022-10-15T03:30:37.117Z,6.07
2022-10-15T03:33:05.944Z,6.10
2022-10-15T03:35:34.634Z,6.11
2022-10-15T03:38:03.112Z,6.15
2022-10-15T03:40:32.325Z,6.21
2022-10-15T03:43:09.791Z,6.27
2022-10-15T03:45:37.966Z,6.30
2022-10-15T03:48:14.777Z,6.32
2022-10-15T03:50:42.884Z,6.32
2022-10-15T03:53:11.194Z,6.29
2022-10-15T03:55:39.780Z,6.24
2022-10-15T03:58:07.873Z,6.23
2022-10-15T04:00:44.151Z,6.24
2022-10-15T04:03:12.665Z,6.21
2022-10-15T04:05:40.825Z,6.25
2022-10-15T04:08:10.681Z,6.31
2022-10-15T04:10:41.182Z,6.35
2022-10-15T04:13:09.183Z,6.32
2022-10-15T04:15:40.596Z,6.26
2022-10-15T04:18:14.360Z,6.19
2022-10-15T04:20:43.035Z,6.12
2022-10-15T04:23:21.167Z,6.08
2022-10-15T04:26:07.789Z,6.06
2022-10-15T04:28:36.044Z,6.05
2022-10-15T04:31:04.832Z,6.06
2022-10-15T04:33:33.142Z,6.08
2022-10-15T04:36:07.164Z,6.07
2022-10-15T04:38:54.140Z,6.05
2022-10-15T04:41:35.438Z,5.97
2022-10-15T04:44:06.007Z,5.91
2022-10-15T04:46:34.186Z,5.84
2022-10-15T04:49:25.111Z,5.80
2022-10-15T04:51:53.607Z,5.80
2022-10-15T04:54:29.933Z,5.80
2022-10-15T04:57:00.234Z,5.79
2022-10-15T04:59:28.495Z,5.82
2022-10-15T05:02:15.295Z,5.82
2022-10-15T05:04:44.130Z,5.79
2022-10-15T05:07:12.442Z,5.77
2022-10-15T05:09:46.025Z,5.80
2022-10-15T05:12:15.014Z,5.87
2022-10-15T05:14:43.193Z,5.98
2022-10-15T05:17:17.090Z,6.07
2022-10-15T05:19:45.495Z,6.10
2022-10-15T05:22:19.609Z,6.13
2022-10-15T05:24:52.697Z,6.24
2022-10-15T05:27:41.215Z,6.28
2022-10-15T05:30:10.802Z,6.36
2022-10-15T05:32:44.457Z,6.45
2022-10-15T05:35:14.068Z,6.51
2022-10-15T05:37:56.634Z,6.43
2022-10-15T05:40:24.828Z,6.39
2022-10-15T05:43:07.468Z,6.40
2022-10-15T05:45:35.448Z,6.40
2022-10-15T05:48:05.697Z,6.42
2022-10-15T05:50:33.791Z,6.46
2022-10-15T05:53:03.883Z,6.50
2022-10-15T05:55:35.259Z,6.55
2022-10-15T05:58:04.454Z,6.63
2022-10-15T06:00:32.807Z,6.73
2022-10-15T06:03:00.914Z,6.82
2022-10-15T06:05:29.300Z,6.84
2022-10-15T06:07:57.883Z,6.88
2022-10-15T06:10:25.943Z,6.90
2022-10-15T06:12:54.022Z,6.93
2022-10-15T06:15:22.677Z,6.93
2022-10-15T06:17:54.383Z,6.95
2022-10-15T06:20:22.529Z,6.97
2022-10-15T06:22:50.721Z,6.95
2022-10-15T06:25:18.827Z,6.86
2022-10-15T06:27:46.903Z,6.82
2022-10-15T06:30:14.958Z,6.81
2022-10-15T06:32:53.504Z,6.81
2022-10-15T06:35:23.247Z,6.89
2022-10-15T06:37:52.762Z,7.01
2022-10-15T06:40:21.266Z,7.13
2022-10-15T06:42:50.047Z,7.26
2022-10-15T06:45:21.011Z,7.29
2022-10-15T06:47:50.040Z,7.37
2022-10-15T06:50:18.298Z,7.38
2022-10-15T06:52:46.566Z,7.42
2022-10-15T06:55:15.548Z,7.37
2022-10-15T06:57:44.036Z,7.35
2022-10-15T07:00:16.044Z,7.25
2022-10-15T07:02:44.444Z,7.19
2022-10-15T07:05:12.798Z,7.17
2022-10-15T07:07:41.222Z,7.22
2022-10-15T07:10:09.830Z,7.30
2022-10-15T07:12:41.552Z,7.35
2022-10-15T07:15:10.011Z,7.49
2022-10-15T07:17:39.714Z,7.62
2022-10-15T07:20:08.399Z,7.72
2022-10-15T07:22:36.987Z,7.77
2022-10-15T07:25:06.627Z,7.82
2022-10-15T07:27:35.062Z,7.92
2022-10-15T07:30:05.799Z,7.99
2022-10-15T07:32:36.763Z,8.08
2022-10-15T07:35:05.663Z,8.15
2022-10-15T07:37:33.768Z,8.23
2022-10-15T07:40:02.087Z,8.18
2022-10-15T07:42:30.251Z,8.10
2022-10-15T07:44:58.493Z,8.08
2022-10-15T07:47:27.226Z,8.06
2022-10-15T07:49:55.436Z,7.99
2022-10-15T07:52:24.449Z,8.01
2022-10-15T07:54:52.934Z,8.03
2022-10-15T07:57:21.054Z,8.09
2022-10-15T07:59:49.141Z,8.22
2022-10-15T08:02:18.723Z,8.39
2022-10-15T08:04:46.639Z,8.61
2022-10-15T08:07:15.595Z,8.81
2022-10-15T08:09:44.149Z,8.97
2022-10-15T08:12:12.227Z,9.08
2022-10-15T08:14:40.759Z,9.04
2022-10-15T08:17:09.017Z,8.97
2022-10-15T08:19:37.447Z,8.96
2022-10-15T08:22:05.839Z,8.91
2022-10-15T08:24:34.475Z,8.92
2022-10-15T08:27:02.835Z,8.92
2022-10-15T08:29:31.055Z,8.86
2022-10-15T08:31:59.047Z,8.79
2022-10-15T08:34:28.098Z,8.81
2022-10-15T08:36:56.574Z,8.85
2022-10-15T08:39:24.829Z,8.82
2022-10-15T08:42:03.989Z,8.85
2022-10-15T08:44:46.323Z,8.91
2022-10-15T08:47:23.447Z,8.98
2022-10-15T08:49:56.772Z,9.03
2022-10-15T08:52:50.415Z,9.04
2022-10-15T08:55:22.349Z,9.03
2022-10-15T08:58:02.703Z,9.00
2022-10-15T09:01:02.720Z,9.04
2022-10-15T09:03:45.979Z,9.17
2022-10-15T09:06:20.433Z,9.30
2022-10-15T09:09:04.453Z,9.45
2022-10-15T09:11:51.589Z,9.62
2022-10-15T09:14:24.971Z,9.82
2022-10-15T09:16:53.207Z,10.01
2022-10-15T09:19:24.598Z,10.06
2022-10-15T09:21:53.256Z,10.03
2022-10-15T09:24:28.635Z,9.96
2022-10-15T09:27:10.163Z,9.96
2022-10-15T09:29:58.937Z,10.15
2022-10-15T09:32:40.887Z,10.30
2022-10-15T09:35:26.761Z,10.38
2022-10-15T09:38:04.859Z,10.41
2022-10-15T09:41:16.827Z,10.47
2022-10-15T09:43:49.324Z,10.45
2022-10-15T09:46:17.671Z,10.45
2022-10-15T09:49:36.130Z,10.55
2022-10-15T09:52:16.271Z,10.55
2022-10-15T09:54:48.026Z,10.58
2022-10-15T09:57:20.576Z,10.71
2022-10-15T10:00:01.796Z,10.91
2022-10-15T10:02:41.580Z,11.05
2022-10-15T10:05:19.218Z,11.10
2022-10-15T10:07:47.704Z,11.18
2022-10-15T10:10:31.139Z,11.23
2022-10-15T10:12:59.431Z,11.28
2022-10-15T10:15:42.622Z,11.33
2022-10-15T10:18:25.054Z,11.30
2022-10-15T10:21:06.799Z,11.32
2022-10-15T10:23:39.402Z,11.48
2022-10-15T10:26:10.830Z,11.67
2022-10-15T10:29:04.717Z,11.80
2022-10-15T10:31:43.326Z,11.69
2022-10-15T10:34:17.852Z,11.66
2022-10-15T10:36:52.142Z,11.70
2022-10-15T10:39:27.930Z,11.89
2022-10-15T10:41:57.866Z,11.88
2022-10-15T10:44:30.900Z,11.95
2022-10-15T10:47:08.703Z,12.12
2022-10-15T10:49:47.091Z,12.29
2022-10-15T10:52:24.228Z,12.41
2022-10-15T10:55:02.275Z,12.42
2022-10-15T10:58:00.376Z,12.49
2022-10-15T11:00:45.141Z,12.45
2022-10-15T11:03:33.795Z,12.35
2022-10-15T11:06:20.776Z,12.38
2022-10-15T11:09:00.361Z,12.51
2022-10-15T11:11:31.989Z,12.59
2022-10-15T11:14:17.645Z,12.56
2022-10-15T11:17:24.672Z,12.51
2022-10-15T11:20:37.639Z,12.34
2022-10-15T11:23:42.407Z,12.29
2022-10-15T11:26:34.108Z,12.21
2022-10-15T11:29:16.663Z,12.25
2022-10-15T11:32:14.667Z,12.26
2022-10-15T11:35:16.902Z,12.31
2022-10-15T11:38:13.992Z,12.25
2022-10-15T11:41:02.975Z,12.12
2022-10-15T11:43:47.932Z,12.08
2022-10-15T11:46:28.830Z,12.07
2022-10-15T11:49:03.530Z,12.08
2022-10-15T11:51:55.580Z,12.13
2022-10-15T11:54:44.996Z,12.22
2022-10-15T11:57:17.360Z,12.31
2022-10-15T12:00:00.662Z,12.30
2022-10-15T12:02:36.410Z,12.33
2022-10-15T12:05:18.912Z,12.43
2022-10-15T12:07:51.126Z,12.49
2022-10-15T12:10:36.655Z,12.53
2022-10-15T12:13:28.416Z,12.60
2022-10-15T12:16:28.207Z,12.63
2022-10-15T12:19:08.269Z,12.69
2022-10-15T12:21:38.136Z,12.78
2022-10-15T12:24:37.873Z,12.82
2022-10-15T12:27:16.193Z,12.87
2022-10-15T12:29:49.231Z,12.93
2022-10-15T12:32:28.912Z,13.04
2022-10-15T12:35:00.239Z,13.12
2022-10-15T12:37:32.602Z,13.21
2022-10-15T12:40:05.673Z,13.25
2022-10-15T12:42:36.623Z,13.23
2022-10-15T12:45:08.432Z,13.20
2022-10-15T12:47:48.483Z,13.21
2022-10-15T12:50:23.579Z,13.29
2022-10-15T12:53:02.242Z,13.32
2022-10-15T12:55:34.184Z,13.30
2022-10-15T12:58:25.250Z,13.33
2022-10-15T13:00:53.657Z,13.43
2022-10-15T13:03:34.596Z,13.54
2022-10-15T13:06:21.463Z,13.62
2022-10-15T13:09:29.122Z,13.64
2022-10-15T13:11:59.936Z,13.68
2022-10-15T13:14:36.192Z,13.72
2022-10-15T13:17:23.066Z,13.78
2022-10-15T13:20:08.513Z,13.85
2022-10-15T13:22:37.459Z,13.88
2022-10-15T13:25:16.571Z,13.90
2022-10-15T13:27:44.623Z,13.93
2022-10-15T13:30:15.659Z,13.98
2022-10-15T13:32:49.506Z,14.04
2022-10-15T13:35:22.772Z,14.10
2022-10-15T13:37:51.116Z,14.16
2022-10-15T13:40:26.160Z,14.20
2022-10-15T13:43:17.994Z,14.24
2022-10-15T13:45:48.158Z,14.28
2022-10-15T13:48:23.198Z,14.29
2022-10-15T13:51:00.436Z,14.31
2022-10-15T13:53:34.924Z,14.33
2022-10-15T13:56:28.009Z,14.34
2022-10-15T13:58:58.604Z,14.34
2022-10-15T14:01:29.044Z,14.34
2022-10-15T14:03:59.802Z,14.34
2022-10-15T14:06:32.428Z,14.35
2022-10-15T14:09:27.077Z,14.37
2022-10-15T14:11:59.200Z,14.39
2022-10-15T14:14:44.181Z,14.42
2022-10-15T14:17:26.923Z,14.43
2022-10-15T14:20:25.732Z,14.42
2022-10-15T14:22:51.659Z,14.40
2022-10-15T14:25:25.960Z,14.39
2022-10-15T14:27:54.412Z,14.37
2022-10-15T14:30:34.436Z,14.34
2022-10-15T14:33:03.007Z,14.30
2022-10-15T14:35:34.349Z,14.27
2022-10-15T14:38:06.450Z,14.24
2022-10-15T14:40:34.484Z,14.24
2022-10-15T14:43:06.355Z,14.23
2022-10-15T14:45:55.257Z,14.23
2022-10-15T14:48:27.325Z,14.22
2022-10-15T14:51:00.283Z,14.21
2022-10-15T14:53:31.962Z,14.19
2022-10-15T14:56:03.719Z,14.16
2022-10-15T14:58:31.919Z,14.13
2022-10-15T15:01:03.234Z,14.10
2022-10-15T15:03:39.998Z,14.05
2022-10-15T15:06:09.322Z,13.98
2022-10-15T15:08:37.679Z,13.91
2022-10-15T15:11:13.249Z,13.83
2022-10-15T15:13:44.136Z,13.74
2022-10-15T15:16:15.430Z,13.65
2022-10-15T15:18:44.262Z,13.58
2022-10-15T15:21:20.285Z,13.51
2022-10-15T15:23:49.249Z,13.45
2022-10-15T15:26:17.807Z,13.37
2022-10-15T15:28:46.146Z,13.28
2022-10-15T15:31:18.053Z,13.20
2022-10-15T15:33:46.543Z,13.13
2022-10-15T15:36:20.604Z,13.06
2022-10-15T15:38:53.184Z,12.96
2022-10-15T15:41:24.240Z,12.85
2022-10-15T15:43:55.199Z,12.73
2022-10-15T15:46:23.550Z,12.61
2022-10-15T15:48:51.765Z,12.52
2022-10-15T15:51:21.860Z,12.45
2022-10-15T15:53:50.150Z,12.36
2022-10-15T15:56:18.346Z,12.27
2022-10-15T15:58:48.672Z,12.15
2022-10-15T16:01:18.338Z,12.02
2022-10-15T16:03:46.626Z,11.90
2022-10-15T16:06:14.940Z,11.79
2022-10-15T16:08:43.071Z,11.66
2022-10-15T16:11:11.282Z,11.53
2022-10-15T16:13:41.676Z,11.40
2022-10-15T16:16:10.942Z,11.26
2022-10-15T16:18:39.342Z,11.17
2022-10-15T16:21:07.561Z,11.09
2022-10-15T16:23:36.063Z,11.03
2022-10-15T16:26:04.132Z,10.96
2022-10-15T16:28:32.261Z,10.90
2022-10-15T16:31:21.125Z,10.83
2022-10-15T16:33:49.246Z,10.78
2022-10-15T16:36:18.423Z,10.75
2022-10-15T16:38:47.602Z,10.71
2022-10-15T16:41:18.855Z,10.71
2022-10-15T16:43:48.067Z,10.68
2022-10-15T16:46:19.311Z,10.66
2022-10-15T16:48:55.931Z,10.65
2022-10-15T16:51:24.356Z,10.62
2022-10-15T16:53:54.785Z,10.53
2022-10-15T16:56:28.615Z,10.43
2022-10-15T16:58:57.533Z,10.36
2022-10-15T17:01:28.683Z,10.28
2022-10-15T17:03:58.773Z,10.20
2022-10-15T17:06:29.206Z,10.13
2022-10-15T17:08:59.037Z,10.03
2022-10-15T17:11:30.112Z,9.93
2022-10-15T17:14:01.653Z,9.85
2022-10-15T17:16:37.493Z,9.79
2022-10-15T17:19:05.927Z,9.76
2022-10-15T17:21:35.351Z,9.72
2022-10-15T17:24:05.706Z,9.69
2022-10-15T17:26:38.707Z,9.68
2022-10-15T17:29:11.047Z,9.67
2022-10-15T17:31:40.050Z,9.66
2022-10-15T17:34:11.036Z,9.65
2022-10-15T17:36:45.497Z,9.66
2022-10-15T17:39:20.550Z,9.65
2022-10-15T17:41:50.916Z,9.65
2022-10-15T17:44:20.308Z,9.67
2022-10-15T17:49:28.519Z,9.66
2022-10-15T17:51:56.521Z,9.64
2022-10-15T17:54:24.954Z,9.63
2022-10-15T17:56:53.048Z,9.59
2022-10-15T17:59:21.057Z,9.54
2022-10-15T18:01:58.454Z,9.47
2022-10-15T18:04:30.896Z,9.39
2022-10-15T18:06:59.250Z,9.30
2022-10-15T18:09:28.381Z,9.22
2022-10-15T18:12:01.052Z,9.15
2022-10-15T18:14:32.138Z,9.09
2022-10-15T18:17:00.209Z,9.06
2022-10-15T18:19:28.897Z,9.03
2022-10-15T18:21:57.998Z,9.04
2022-10-15T18:24:26.738Z,9.03
2022-10-15T18:26:55.345Z,9.02
2022-10-15T18:29:25.601Z,9.02
2022-10-15T18:31:57.643Z,9.02
2022-10-15T18:34:28.396Z,9.03
2022-10-15T18:36:57.019Z,9.02
2022-10-15T18:39:26.767Z,9.02
2022-10-15T18:41:55.006Z,9.01
2022-10-15T18:44:24.050Z,9.00
2022-10-15T18:46:52.644Z,9.00
2022-10-15T18:49:21.091Z,8.99
2022-10-15T18:51:52.081Z,8.98
2022-10-15T18:54:22.175Z,8.96
2022-10-15T18:56:51.201Z,8.93
2022-10-15T18:59:20.837Z,8.89
2022-10-15T19:01:50.589Z,8.85
2022-10-15T19:04:20.524Z,8.78
2022-10-15T19:06:51.276Z,8.73
2022-10-15T19:09:22.983Z,8.67
2022-10-15T19:11:53.755Z,8.63
2022-10-15T19:14:22.954Z,8.61
2022-10-15T19:16:51.832Z,8.59
2022-10-15T19:19:22.438Z,8.59
2022-10-15T19:21:51.920Z,8.61
2022-10-15T19:24:21.609Z,8.63
2022-10-15T19:26:51.698Z,8.66
2022-10-15T19:29:20.475Z,8.70
2022-10-15T19:31:54.909Z,8.75
2022-10-15T19:34:23.979Z,8.81
2022-10-15T19:36:52.079Z,8.87
2022-10-15T19:39:22.238Z,8.91
2022-10-15T19:41:52.443Z,8.96
2022-10-15T19:44:25.696Z,8.98
2022-10-15T19:46:56.228Z,9.01
2022-10-15T19:49:25.711Z,9.03
2022-10-15T19:51:53.840Z,9.01
2022-10-15T19:54:21.951Z,8.96
2022-10-15T19:56:50.016Z,8.92
2022-10-15T19:59:18.666Z,8.88
2022-10-15T20:01:46.905Z,8.80
2022-10-15T20:04:15.098Z,8.72
2022-10-15T20:06:43.972Z,8.65
2022-10-15T20:09:12.368Z,8.58
2022-10-15T20:11:40.406Z,8.52
2022-10-15T20:14:09.038Z,8.46
2022-10-15T20:16:37.403Z,8.40
2022-10-15T20:19:06.560Z,8.36
2022-10-15T20:21:35.433Z,8.32
2022-10-15T20:24:04.897Z,8.29
2022-10-15T20:26:33.614Z,8.28
2022-10-15T20:29:02.232Z,8.27
2022-10-15T20:31:33.386Z,8.25
2022-10-15T20:34:03.392Z,8.26
2022-10-15T20:36:32.121Z,8.24
2022-10-15T20:39:01.662Z,8.19
2022-10-15T20:41:30.272Z,8.12
2022-10-15T20:43:58.795Z,8.06
2022-10-15T20:46:37.006Z,8.01
2022-10-15T20:49:14.780Z,7.96
2022-10-15T20:51:44.935Z,7.90
2022-10-15T20:54:15.732Z,7.82
2022-10-15T20:56:43.625Z,7.75
2022-10-15T20:59:12.317Z,7.69
2022-10-15T21:01:40.531Z,7.62
2022-10-15T21:04:08.884Z,7.55
2022-10-15T21:06:36.867Z,7.51
2022-10-15T21:09:04.918Z,7.49
2022-10-15T21:11:32.985Z,7.46
2022-10-15T21:14:01.838Z,7.44
2022-10-15T21:19:04.066Z,7.43
2022-10-15T21:21:32.806Z,7.42
2022-10-15T21:24:01.379Z,7.42
2022-10-15T21:26:29.649Z,7.44
2022-10-15T21:28:59.990Z,7.45
2022-10-15T21:31:28.279Z,7.45
2022-10-15T21:33:56.559Z,7.43
2022-10-15T21:36:27.097Z,7.42
2022-10-15T21:39:03.931Z,7.42
2022-10-15T21:41:33.463Z,7.39
2022-10-15T21:44:02.405Z,7.37
2022-10-15T21:46:31.758Z,7.38
2022-10-15T21:49:01.145Z,7.37
2022-10-15T21:51:31.830Z,7.34
2022-10-15T21:54:01.908Z,7.29
2022-10-15T21:56:29.964Z,7.24
2022-10-15T21:58:59.269Z,7.17
2022-10-15T22:01:33.393Z,7.10
2022-10-15T22:04:10.214Z,7.03
2022-10-15T22:06:40.491Z,6.98
2022-10-15T22:09:10.468Z,6.95
2022-10-15T22:11:40.430Z,6.92
2022-10-15T22:14:11.694Z,6.90
2022-10-15T22:16:41.066Z,6.90
2022-10-15T22:19:13.679Z,6.89
2022-10-15T22:21:42.405Z,6.90
2022-10-15T22:24:14.983Z,6.91
2022-10-15T22:26:45.789Z,6.92
2022-10-15T22:29:25.930Z,6.92
2022-10-15T22:31:54.689Z,6.92
2022-10-15T22:34:23.730Z,6.94
2022-10-15T22:36:52.218Z,6.96
2022-10-15T22:39:20.253Z,6.97
2022-10-15T22:41:49.109Z,7.00
2022-10-15T22:44:20.748Z,7.00
2022-10-15T22:46:49.922Z,6.98
2022-10-15T22:49:20.982Z,6.96
2022-10-15T22:51:50.588Z,6.92
2022-10-15T22:54:22.132Z,6.86
2022-10-15T22:56:51.288Z,6.78
2022-10-15T22:59:20.279Z,6.70
2022-10-15T23:01:48.514Z,6.62
2022-10-15T23:04:17.228Z,6.55
2022-10-15T23:06:45.238Z,6.50
2022-10-15T23:09:17.934Z,6.46
2022-10-15T23:11:47.195Z,6.43
2022-10-15T23:14:16.584Z,6.43
2022-10-15T23:16:47.029Z,6.41
2022-10-15T23:19:18.485Z,6.42
2022-10-15T23:21:52.756Z,6.44
2022-10-15T23:24:23.093Z,6.47
2022-10-15T23:26:51.777Z,6.49
2022-10-15T23:29:22.444Z,6.47
2022-10-15T23:31:52.550Z,6.48
2022-10-15T23:34:24.015Z,6.48
2022-10-15T23:36:52.950Z,6.47
2022-10-15T23:39:23.890Z,6.49
2022-10-15T23:41:52.680Z,6.47
2022-10-15T23:44:21.558Z,6.45
2022-10-15T23:46:49.361Z,6.44
2022-10-15T23:49:17.603Z,6.42
2022-10-15T23:51:45.978Z,6.38
2022-10-15T23:54:17.849Z,6.33
2022-10-15T23:56:47.406Z,6.27
2022-10-15T23:59:17.181Z,6.19
